sensor_id;sensor_type;location;lat;lon;timestamp;noise_LAeq;noise_LA_min;noise_LA_max;noise_LA01;noise_LA95
49568;Laerm;35474;51.032;6.998;2023-09-08T00:00:34;48.97;45.11;54.21;;
49568;Laerm;35474;51.032;6.998;2023-09-08T00:03:01;48.71;44.73;55.06;;
49568;Laerm;35474;51.032;6.998;2023-09-08T00:05:27;54.15;45.04;71.40;;
49568;Laerm;35474;51.032;6.998;2023-09-08T00:07:54;52.18;44.94;65.55;;
49568;Laerm;35474;51.032;6.998;2023-09-08T00:10:21;48.09;44.23;56.68;;
49568;Laerm;35474;51.032;6.998;2023-09-08T00:12:47;54.30;44.39;69.75;;
49568;Laerm;35474;51.032;6.998;2023-09-08T00:15:14;47.35;44.15;53.78;;
49568;Laerm;35474;51.032;6.998;2023-09-08T00:17:40;55.77;45.04;70.61;;
49568;Laerm;35474;51.032;6.998;2023-09-08T00:20:07;53.85;44.87;68.57;;
49568;Laerm;35474;51.032;6.998;2023-09-08T00:22:37;54.34;44.80;66.75;;
49568;Laerm;35474;51.032;6.998;2023-09-08T00:25:05;56.26;44.27;70.77;;
49568;Laerm;35474;51.032;6.998;2023-09-08T00:27:31;55.30;45.11;68.31;;
49568;Laerm;35474;51.032;6.998;2023-09-08T00:29:58;48.09;44.90;52.79;;
49568;Laerm;35474;51.032;6.998;2023-09-08T00:32:33;51.13;45.75;62.89;;
49568;Laerm;35474;51.032;6.998;2023-09-08T00:34:59;52.81;45.54;66.64;;
49568;Laerm;35474;51.032;6.998;2023-09-08T00:37:26;53.30;44.87;68.88;;
49568;Laerm;35474;51.032;6.998;2023-09-08T00:39:53;54.23;45.17;66.45;;
49568;Laerm;35474;51.032;6.998;2023-09-08T00:42:19;49.01;44.87;62.30;;
49568;Laerm;35474;51.032;6.998;2023-09-08T00:44:46;51.98;45.04;64.47;;
49568;Laerm;35474;51.032;6.998;2023-09-08T00:47:13;53.01;45.27;64.87;;
49568;Laerm;35474;51.032;6.998;2023-09-08T00:49:39;47.95;44.90;57.81;;
49568;Laerm;35474;51.032;6.998;2023-09-08T00:52:06;48.74;44.65;54.97;;
49568;Laerm;35474;51.032;6.998;2023-09-08T00:54:33;51.73;44.87;65.28;;
49568;Laerm;35474;51.032;6.998;2023-09-08T00:57:01;48.63;44.03;55.30;;
49568;Laerm;35474;51.032;6.998;2023-09-08T00:59:31;57.49;44.90;72.57;;
49568;Laerm;35474;51.032;6.998;2023-09-08T01:01:58;48.13;44.87;53.41;;
49568;Laerm;35474;51.032;6.998;2023-09-08T01:04:26;51.40;45.07;61.38;;
49568;Laerm;35474;51.032;6.998;2023-09-08T01:06:53;48.83;45.23;53.62;;
49568;Laerm;35474;51.032;6.998;2023-09-08T01:09:29;54.05;45.23;66.82;;
49568;Laerm;35474;51.032;6.998;2023-09-08T01:11:56;55.25;44.58;66.53;;
49568;Laerm;35474;51.032;6.998;2023-09-08T01:14:27;53.68;44.43;67.56;;
49568;Laerm;35474;51.032;6.998;2023-09-08T01:16:54;48.50;44.03;56.10;;
49568;Laerm;35474;51.032;6.998;2023-09-08T01:19:20;57.93;45.69;71.99;;
49568;Laerm;35474;51.032;6.998;2023-09-08T01:22:02;51.82;45.01;67.17;;
49568;Laerm;35474;51.032;6.998;2023-09-08T01:25:06;47.82;44.83;54.64;;
49568;Laerm;35474;51.032;6.998;2023-09-08T01:27:37;52.52;44.58;66.52;;
49568;Laerm;35474;51.032;6.998;2023-09-08T01:30:05;49.06;45.36;57.55;;
49568;Laerm;35474;51.032;6.998;2023-09-08T01:32:33;48.03;45.20;51.93;;
49568;Laerm;35474;51.032;6.998;2023-09-08T01:35:01;53.70;44.97;70.21;;
49568;Laerm;35474;51.032;6.998;2023-09-08T01:37:27;48.78;45.94;52.24;;
49568;Laerm;35474;51.032;6.998;2023-09-08T01:39:54;56.66;44.83;70.52;;
49568;Laerm;35474;51.032;6.998;2023-09-08T01:42:21;46.47;44.69;55.14;;
49568;Laerm;35474;51.032;6.998;2023-09-08T01:44:47;46.62;44.31;54.77;;
49568;Laerm;35474;51.032;6.998;2023-09-08T01:47:15;46.17;44.35;49.75;;
49568;Laerm;35474;51.032;6.998;2023-09-08T01:49:41;46.40;44.23;49.58;;
49568;Laerm;35474;51.032;6.998;2023-09-08T01:52:08;53.77;44.35;68.90;;
49568;Laerm;35474;51.032;6.998;2023-09-08T01:54:34;54.44;44.83;66.97;;
49568;Laerm;35474;51.032;6.998;2023-09-08T01:57:01;47.39;44.94;55.14;;
49568;Laerm;35474;51.032;6.998;2023-09-08T01:59:28;50.70;44.69;67.63;;
49568;Laerm;35474;51.032;6.998;2023-09-08T02:01:55;48.03;45.14;55.19;;
49568;Laerm;35474;51.032;6.998;2023-09-08T02:04:22;52.28;45.01;66.70;;
49568;Laerm;35474;51.032;6.998;2023-09-08T02:06:49;49.50;45.80;54.54;;
49568;Laerm;35474;51.032;6.998;2023-09-08T02:09:15;63.14;45.14;81.27;;
49568;Laerm;35474;51.032;6.998;2023-09-08T02:11:48;56.33;45.72;70.05;;
49568;Laerm;35474;51.032;6.998;2023-09-08T02:14:18;53.01;45.63;65.81;;
49568;Laerm;35474;51.032;6.998;2023-09-08T02:16:44;49.80;45.83;58.06;;
49568;Laerm;35474;51.032;6.998;2023-09-08T02:19:11;48.47;44.69;55.28;;
49568;Laerm;35474;51.032;6.998;2023-09-08T02:21:38;55.27;45.69;66.42;;
49568;Laerm;35474;51.032;6.998;2023-09-08T02:24:04;48.41;44.90;54.40;;
49568;Laerm;35474;51.032;6.998;2023-09-08T02:26:31;56.98;45.89;68.65;;
49568;Laerm;35474;51.032;6.998;2023-09-08T02:29:00;49.75;45.39;60.32;;
49568;Laerm;35474;51.032;6.998;2023-09-08T02:31:27;50.69;45.48;61.39;;
49568;Laerm;35474;51.032;6.998;2023-09-08T02:33:54;52.74;44.76;66.95;;
49568;Laerm;35474;51.032;6.998;2023-09-08T02:36:21;48.44;45.36;52.81;;
49568;Laerm;35474;51.032;6.998;2023-09-08T02:38:55;55.70;44.90;72.58;;
49568;Laerm;35474;51.032;6.998;2023-09-08T02:41:22;56.47;45.91;71.31;;
49568;Laerm;35474;51.032;6.998;2023-09-08T02:43:49;55.18;46.23;65.66;;
49568;Laerm;35474;51.032;6.998;2023-09-08T02:46:15;56.58;45.57;67.55;;
49568;Laerm;35474;51.032;6.998;2023-09-08T02:48:42;54.52;45.23;70.96;;
49568;Laerm;35474;51.032;6.998;2023-09-08T02:51:09;52.24;45.11;66.84;;
49568;Laerm;35474;51.032;6.998;2023-09-08T02:53:36;54.56;45.72;66.49;;
49568;Laerm;35474;51.032;6.998;2023-09-08T02:56:02;48.49;44.73;56.31;;
49568;Laerm;35474;51.032;6.998;2023-09-08T02:58:31;57.32;45.07;69.06;;
49568;Laerm;35474;51.032;6.998;2023-09-08T03:01:15;60.30;44.94;74.11;;
49568;Laerm;35474;51.032;6.998;2023-09-08T03:03:46;52.96;45.27;64.57;;
49568;Laerm;35474;51.032;6.998;2023-09-08T03:06:17;56.31;45.60;67.82;;
49568;Laerm;35474;51.032;6.998;2023-09-08T03:08:44;54.53;45.48;65.90;;
49568;Laerm;35474;51.032;6.998;2023-09-08T03:11:13;57.05;45.77;70.38;;
49568;Laerm;35474;51.032;6.998;2023-09-08T03:13:39;56.86;44.87;69.05;;
49568;Laerm;35474;51.032;6.998;2023-09-08T03:16:09;60.14;45.01;69.91;;
49568;Laerm;35474;51.032;6.998;2023-09-08T03:18:37;58.62;44.97;68.41;;
49568;Laerm;35474;51.032;6.998;2023-09-08T03:21:04;60.20;45.14;70.04;;
49568;Laerm;35474;51.032;6.998;2023-09-08T03:23:43;60.75;45.89;70.60;;
49568;Laerm;35474;51.032;6.998;2023-09-08T03:26:10;61.01;46.30;69.31;;
49568;Laerm;35474;51.032;6.998;2023-09-08T03:28:37;59.68;45.39;70.78;;
49568;Laerm;35474;51.032;6.998;2023-09-08T03:31:05;59.19;45.99;71.04;;
49568;Laerm;35474;51.032;6.998;2023-09-08T03:33:32;63.09;46.40;75.70;;
49568;Laerm;35474;51.032;6.998;2023-09-08T03:35:59;59.28;47.22;69.23;;
49568;Laerm;35474;51.032;6.998;2023-09-08T03:38:26;61.34;47.77;69.94;;
49568;Laerm;35474;51.032;6.998;2023-09-08T03:40:52;60.56;47.88;69.31;;
49568;Laerm;35474;51.032;6.998;2023-09-08T03:43:19;64.31;47.14;72.39;;
49568;Laerm;35474;51.032;6.998;2023-09-08T03:45:46;61.78;48.08;70.65;;
49568;Laerm;35474;51.032;6.998;2023-09-08T03:48:13;61.50;50.12;70.87;;
49568;Laerm;35474;51.032;6.998;2023-09-08T03:50:40;61.33;48.94;71.06;;
49568;Laerm;35474;51.032;6.998;2023-09-08T03:53:08;54.43;48.42;64.64;;
49568;Laerm;35474;51.032;6.998;2023-09-08T03:55:35;61.73;48.36;69.81;;
49568;Laerm;35474;51.032;6.998;2023-09-08T03:58:01;60.99;49.24;69.35;;
49568;Laerm;35474;51.032;6.998;2023-09-08T04:00:28;61.45;48.32;70.39;;
49568;Laerm;35474;51.032;6.998;2023-09-08T04:02:55;60.74;48.12;76.36;;
49568;Laerm;35474;51.032;6.998;2023-09-08T04:05:22;60.81;49.06;69.46;;
49568;Laerm;35474;51.032;6.998;2023-09-08T04:07:48;60.57;50.32;69.24;;
49568;Laerm;35474;51.032;6.998;2023-09-08T04:10:15;60.43;48.80;69.36;;
49568;Laerm;35474;51.032;6.998;2023-09-08T04:12:42;61.05;49.63;69.65;;
49568;Laerm;35474;51.032;6.998;2023-09-08T04:15:09;62.82;50.10;71.57;;
49568;Laerm;35474;51.032;6.998;2023-09-08T04:17:37;62.48;49.50;75.84;;
49568;Laerm;35474;51.032;6.998;2023-09-08T04:20:05;62.73;50.25;70.51;;
49568;Laerm;35474;51.032;6.998;2023-09-08T04:22:32;61.13;49.04;70.67;;
49568;Laerm;35474;51.032;6.998;2023-09-08T04:24:59;62.29;51.67;72.03;;
49568;Laerm;35474;51.032;6.998;2023-09-08T04:27:26;64.11;51.68;74.37;;
49568;Laerm;35474;51.032;6.998;2023-09-08T04:29:53;62.78;51.84;73.63;;
49568;Laerm;35474;51.032;6.998;2023-09-08T04:32:20;63.42;51.34;70.53;;
49568;Laerm;35474;51.032;6.998;2023-09-08T04:34:46;63.30;52.69;71.33;;
49568;Laerm;35474;51.032;6.998;2023-09-08T04:37:13;63.70;52.88;72.20;;
49568;Laerm;35474;51.032;6.998;2023-09-08T04:39:40;63.70;52.71;71.49;;
49568;Laerm;35474;51.032;6.998;2023-09-08T04:42:08;63.46;50.31;74.80;;
49568;Laerm;35474;51.032;6.998;2023-09-08T04:44:34;64.76;50.13;72.76;;
49568;Laerm;35474;51.032;6.998;2023-09-08T04:47:01;64.85;53.03;76.11;;
49568;Laerm;35474;51.032;6.998;2023-09-08T04:49:28;65.37;52.26;75.00;;
49568;Laerm;35474;51.032;6.998;2023-09-08T04:51:56;65.52;54.93;74.63;;
49568;Laerm;35474;51.032;6.998;2023-09-08T04:54:23;64.55;53.61;72.32;;
49568;Laerm;35474;51.032;6.998;2023-09-08T04:56:53;63.59;51.91;80.85;;
49568;Laerm;35474;51.032;6.998;2023-09-08T04:59:38;65.18;54.68;73.43;;
49568;Laerm;35474;51.032;6.998;2023-09-08T05:02:05;63.13;51.34;75.42;;
49568;Laerm;35474;51.032;6.998;2023-09-08T05:04:32;64.62;52.27;82.09;;
49568;Laerm;35474;51.032;6.998;2023-09-08T05:06:59;64.08;52.28;71.03;;
49568;Laerm;35474;51.032;6.998;2023-09-08T05:09:25;64.88;51.64;76.05;;
49568;Laerm;35474;51.032;6.998;2023-09-08T05:11:52;64.26;50.59;71.78;;
49568;Laerm;35474;51.032;6.998;2023-09-08T05:14:19;64.35;52.81;71.46;;
49568;Laerm;35474;51.032;6.998;2023-09-08T05:16:45;63.09;50.30;70.86;;
49568;Laerm;35474;51.032;6.998;2023-09-08T05:19:13;64.98;57.45;70.84;;
49568;Laerm;35474;51.032;6.998;2023-09-08T05:21:40;65.48;50.28;71.57;;
49568;Laerm;35474;51.032;6.998;2023-09-08T05:24:07;65.50;50.55;73.70;;
49568;Laerm;35474;51.032;6.998;2023-09-08T05:26:37;66.07;51.14;73.21;;
49568;Laerm;35474;51.032;6.998;2023-09-08T05:29:05;65.27;49.40;71.58;;
49568;Laerm;35474;51.032;6.998;2023-09-08T05:31:32;63.49;50.27;71.74;;
49568;Laerm;35474;51.032;6.998;2023-09-08T05:33:59;62.34;50.56;70.23;;
49568;Laerm;35474;51.032;6.998;2023-09-08T05:36:25;64.32;53.90;77.21;;
49568;Laerm;35474;51.032;6.998;2023-09-08T05:38:52;64.91;51.91;71.28;;
49568;Laerm;35474;51.032;6.998;2023-09-08T05:41:19;65.02;55.45;73.20;;
49568;Laerm;35474;51.032;6.998;2023-09-08T05:43:45;63.48;52.22;77.37;;
49568;Laerm;35474;51.032;6.998;2023-09-08T05:46:12;63.82;51.15;74.56;;
49568;Laerm;35474;51.032;6.998;2023-09-08T05:48:39;65.46;54.40;73.35;;
49568;Laerm;35474;51.032;6.998;2023-09-08T05:51:06;64.92;53.79;73.48;;
49568;Laerm;35474;51.032;6.998;2023-09-08T05:53:33;66.77;53.71;86.36;;
49568;Laerm;35474;51.032;6.998;2023-09-08T05:56:02;63.85;51.10;73.78;;
49568;Laerm;35474;51.032;6.998;2023-09-08T05:58:28;64.13;55.75;74.63;;
49568;Laerm;35474;51.032;6.998;2023-09-08T06:00:56;62.27;57.45;73.67;;
49568;Laerm;35474;51.032;6.998;2023-09-08T06:03:22;64.37;55.52;71.35;;
49568;Laerm;35474;51.032;6.998;2023-09-08T06:05:49;63.52;51.94;71.32;;
49568;Laerm;35474;51.032;6.998;2023-09-08T06:08:16;63.95;55.12;76.96;;
49568;Laerm;35474;51.032;6.998;2023-09-08T06:10:42;65.13;55.96;74.69;;
49568;Laerm;35474;51.032;6.998;2023-09-08T06:13:09;66.32;58.73;76.64;;
49568;Laerm;35474;51.032;6.998;2023-09-08T06:15:36;64.36;54.48;77.02;;
49568;Laerm;35474;51.032;6.998;2023-09-08T06:18:03;64.81;55.06;74.21;;
49568;Laerm;35474;51.032;6.998;2023-09-08T06:20:30;64.66;53.78;71.50;;
49568;Laerm;35474;51.032;6.998;2023-09-08T06:22:57;65.22;52.94;74.21;;
49568;Laerm;35474;51.032;6.998;2023-09-08T06:25:24;64.74;55.14;70.97;;
49568;Laerm;35474;51.032;6.998;2023-09-08T06:27:50;64.58;53.57;71.84;;
49568;Laerm;35474;51.032;6.998;2023-09-08T06:32:35;65.00;52.12;72.84;;
49568;Laerm;35474;51.032;6.998;2023-09-08T06:35:01;64.84;54.60;71.57;;
49568;Laerm;35474;51.032;6.998;2023-09-08T06:37:28;62.96;53.52;76.27;;
49568;Laerm;35474;51.032;6.998;2023-09-08T06:39:55;65.06;57.56;83.12;;
49568;Laerm;35474;51.032;6.998;2023-09-08T06:42:22;63.63;51.94;86.42;;
49568;Laerm;35474;51.032;6.998;2023-09-08T06:44:48;62.50;54.19;71.57;;
49568;Laerm;35474;51.032;6.998;2023-09-08T06:47:15;64.69;54.17;72.41;;
49568;Laerm;35474;51.032;6.998;2023-09-08T06:49:42;64.14;52.96;73.56;;
49568;Laerm;35474;51.032;6.998;2023-09-08T06:52:08;63.79;57.71;70.48;;
49568;Laerm;35474;51.032;6.998;2023-09-08T06:54:35;62.86;52.92;74.80;;
49568;Laerm;35474;51.032;6.998;2023-09-08T06:57:02;63.49;53.00;81.60;;
49568;Laerm;35474;51.032;6.998;2023-09-08T06:59:29;65.80;52.63;74.89;;
49568;Laerm;35474;51.032;6.998;2023-09-08T07:01:56;66.52;51.50;80.19;;
49568;Laerm;35474;51.032;6.998;2023-09-08T07:04:22;67.06;52.63;80.47;;
49568;Laerm;35474;51.032;6.998;2023-09-08T07:06:49;64.23;51.66;72.77;;
49568;Laerm;35474;51.032;6.998;2023-09-08T07:09:16;63.25;51.65;69.76;;
49568;Laerm;35474;51.032;6.998;2023-09-08T07:11:43;62.27;50.61;69.04;;
49568;Laerm;35474;51.032;6.998;2023-09-08T07:14:09;64.28;54.27;72.34;;
49568;Laerm;35474;51.032;6.998;2023-09-08T07:16:36;62.94;52.22;70.85;;
49568;Laerm;35474;51.032;6.998;2023-09-08T07:19:03;64.42;52.94;71.99;;
49568;Laerm;35474;51.032;6.998;2023-09-08T07:21:30;64.28;52.78;73.43;;
49568;Laerm;35474;51.032;6.998;2023-09-08T07:23:57;64.12;48.91;73.27;;
49568;Laerm;35474;51.032;6.998;2023-09-08T07:26:24;64.78;49.45;73.62;;
49568;Laerm;35474;51.032;6.998;2023-09-08T07:28:51;65.60;53.47;74.02;;
49568;Laerm;35474;51.032;6.998;2023-09-08T07:31:18;64.64;52.31;72.64;;
49568;Laerm;35474;51.032;6.998;2023-09-08T07:33:44;62.12;48.26;70.10;;
49568;Laerm;35474;51.032;6.998;2023-09-08T07:36:11;62.46;49.83;71.20;;
49568;Laerm;35474;51.032;6.998;2023-09-08T07:38:38;66.19;48.15;84.74;;
49568;Laerm;35474;51.032;6.998;2023-09-08T07:41:05;64.06;52.32;71.30;;
49568;Laerm;35474;51.032;6.998;2023-09-08T07:43:31;64.04;45.86;71.51;;
49568;Laerm;35474;51.032;6.998;2023-09-08T07:45:58;67.21;48.81;79.48;;
49568;Laerm;35474;51.032;6.998;2023-09-08T07:48:25;67.47;52.68;79.24;;
49568;Laerm;35474;51.032;6.998;2023-09-08T07:50:52;64.00;53.42;71.94;;
49568;Laerm;35474;51.032;6.998;2023-09-08T07:53:18;65.40;52.75;72.96;;
49568;Laerm;35474;51.032;6.998;2023-09-08T07:55:45;66.50;54.05;78.65;;
49568;Laerm;35474;51.032;6.998;2023-09-08T07:58:14;64.69;53.55;84.45;;
49568;Laerm;35474;51.032;6.998;2023-09-08T08:00:41;65.05;50.46;74.19;;
49568;Laerm;35474;51.032;6.998;2023-09-08T08:03:08;64.23;48.69;80.38;;
49568;Laerm;35474;51.032;6.998;2023-09-08T08:05:35;64.89;52.70;79.24;;
49568;Laerm;35474;51.032;6.998;2023-09-08T08:08:02;64.21;47.30;80.60;;
49568;Laerm;35474;51.032;6.998;2023-09-08T08:10:28;66.66;53.36;84.43;;
49568;Laerm;35474;51.032;6.998;2023-09-08T08:12:55;66.08;48.18;86.20;;
49568;Laerm;35474;51.032;6.998;2023-09-08T08:15:22;65.40;52.28;80.94;;
49568;Laerm;35474;51.032;6.998;2023-09-08T08:17:49;64.48;45.30;83.40;;
49568;Laerm;35474;51.032;6.998;2023-09-08T08:20:16;64.91;46.25;78.13;;
49568;Laerm;35474;51.032;6.998;2023-09-08T08:22:48;64.74;46.25;86.07;;
49568;Laerm;35474;51.032;6.998;2023-09-08T08:25:15;65.67;48.90;81.37;;
49568;Laerm;35474;51.032;6.998;2023-09-08T08:27:42;65.93;51.00;84.24;;
49568;Laerm;35474;51.032;6.998;2023-09-08T08:30:09;70.33;57.80;93.51;;
49568;Laerm;35474;51.032;6.998;2023-09-08T08:32:38;65.73;52.42;84.56;;
49568;Laerm;35474;51.032;6.998;2023-09-08T08:35:05;65.95;53.72;88.72;;
49568;Laerm;35474;51.032;6.998;2023-09-08T08:37:31;67.75;54.06;87.17;;
49568;Laerm;35474;51.032;6.998;2023-09-08T08:39:58;69.33;46.20;97.02;;
49568;Laerm;35474;51.032;6.998;2023-09-08T08:42:31;65.68;46.18;85.64;;
49568;Laerm;35474;51.032;6.998;2023-09-08T08:44:59;72.27;54.12;97.47;;
49568;Laerm;35474;51.032;6.998;2023-09-08T08:47:29;67.13;47.26;88.30;;
49568;Laerm;35474;51.032;6.998;2023-09-08T08:49:58;72.56;56.00;96.45;;
49568;Laerm;35474;51.032;6.998;2023-09-08T08:52:28;66.36;47.50;82.32;;
49568;Laerm;35474;51.032;6.998;2023-09-08T08:54:56;63.89;44.11;85.98;;
49568;Laerm;35474;51.032;6.998;2023-09-08T08:57:23;65.18;46.91;85.91;;
49568;Laerm;35474;51.032;6.998;2023-09-08T08:59:50;68.34;52.21;89.05;;
49568;Laerm;35474;51.032;6.998;2023-09-08T09:02:21;63.17;49.34;75.09;;
49568;Laerm;35474;51.032;6.998;2023-09-08T09:04:49;65.63;48.66;89.93;;
49568;Laerm;35474;51.032;6.998;2023-09-08T09:07:18;69.10;52.29;87.53;;
49568;Laerm;35474;51.032;6.998;2023-09-08T09:09:46;67.84;55.13;87.14;;
49568;Laerm;35474;51.032;6.998;2023-09-08T09:12:13;66.35;47.68;89.03;;
49568;Laerm;35474;51.032;6.998;2023-09-08T09:14:47;65.54;46.52;85.90;;
49568;Laerm;35474;51.032;6.998;2023-09-08T09:17:14;71.91;44.94;93.92;;
49568;Laerm;35474;51.032;6.998;2023-09-08T09:19:41;65.36;46.91;85.82;;
49568;Laerm;35474;51.032;6.998;2023-09-08T09:22:08;70.31;56.22;92.37;;
49568;Laerm;35474;51.032;6.998;2023-09-08T09:24:38;66.18;46.18;87.44;;
49568;Laerm;35474;51.032;6.998;2023-09-08T09:27:07;66.20;50.51;84.14;;
49568;Laerm;35474;51.032;6.998;2023-09-08T09:29:44;65.11;50.89;83.54;;
49568;Laerm;35474;51.032;6.998;2023-09-08T09:32:12;67.27;47.44;88.37;;
49568;Laerm;35474;51.032;6.998;2023-09-08T09:34:51;67.14;47.96;88.22;;
49568;Laerm;35474;51.032;6.998;2023-09-08T09:37:20;66.57;47.22;84.47;;
49568;Laerm;35474;51.032;6.998;2023-09-08T09:39:53;67.64;48.91;85.20;;
49568;Laerm;35474;51.032;6.998;2023-09-08T09:42:20;65.67;56.97;82.46;;
49568;Laerm;35474;51.032;6.998;2023-09-08T09:44:48;63.68;44.83;82.22;;
49568;Laerm;35474;51.032;6.998;2023-09-08T09:47:16;65.46;53.80;79.14;;
49568;Laerm;35474;51.032;6.998;2023-09-08T09:49:48;66.57;49.60;87.55;;
49568;Laerm;35474;51.032;6.998;2023-09-08T09:52:21;64.65;49.36;81.78;;
49568;Laerm;35474;51.032;6.998;2023-09-08T09:54:49;69.47;50.98;96.13;;
49568;Laerm;35474;51.032;6.998;2023-09-08T09:57:21;70.85;46.15;98.94;;
49568;Laerm;35474;51.032;6.998;2023-09-08T09:59:48;64.45;48.00;82.25;;
49568;Laerm;35474;51.032;6.998;2023-09-08T10:02:18;70.15;52.63;99.52;;
49568;Laerm;35474;51.032;6.998;2023-09-08T10:04:49;66.88;47.54;87.43;;
49568;Laerm;35474;51.032;6.998;2023-09-08T10:07:17;68.40;44.80;92.70;;
49568;Laerm;35474;51.032;6.998;2023-09-08T10:09:45;66.31;51.26;84.91;;
49568;Laerm;35474;51.032;6.998;2023-09-08T10:12:14;65.35;49.11;86.40;;
49568;Laerm;35474;51.032;6.998;2023-09-08T10:14:45;67.54;54.71;89.86;;
49568;Laerm;35474;51.032;6.998;2023-09-08T10:17:18;64.10;47.04;81.55;;
49568;Laerm;35474;51.032;6.998;2023-09-08T10:19:48;65.03;49.25;85.15;;
49568;Laerm;35474;51.032;6.998;2023-09-08T10:22:20;64.55;52.36;83.32;;
49568;Laerm;35474;51.032;6.998;2023-09-08T10:24:50;66.99;49.27;85.22;;
49568;Laerm;35474;51.032;6.998;2023-09-08T10:27:19;67.03;55.32;78.34;;
49568;Laerm;35474;51.032;6.998;2023-09-08T10:29:48;67.40;47.77;87.16;;
49568;Laerm;35474;51.032;6.998;2023-09-08T10:32:15;68.26;55.74;91.14;;
49568;Laerm;35474;51.032;6.998;2023-09-08T10:34:43;68.45;47.02;88.72;;
49568;Laerm;35474;51.032;6.998;2023-09-08T10:37:25;73.12;53.72;97.87;;
49568;Laerm;35474;51.032;6.998;2023-09-08T10:39:52;67.50;53.56;85.86;;
49568;Laerm;35474;51.032;6.998;2023-09-08T10:47:22;66.04;47.30;82.74;;
49568;Laerm;35474;51.032;6.998;2023-09-08T10:49:52;64.19;48.77;76.28;;
49568;Laerm;35474;51.032;6.998;2023-09-08T10:52:26;68.78;56.53;93.89;;
49568;Laerm;35474;51.032;6.998;2023-09-08T10:54:54;69.40;57.86;89.83;;
49568;Laerm;35474;51.032;6.998;2023-09-08T10:57:23;69.49;59.22;83.64;;
49568;Laerm;35474;51.032;6.998;2023-09-08T11:00:04;71.10;59.10;90.87;;
49568;Laerm;35474;51.032;6.998;2023-09-08T11:02:50;70.64;55.27;94.18;;
49568;Laerm;35474;51.032;6.998;2023-09-08T11:05:17;68.41;55.80;87.60;;
49568;Laerm;35474;51.032;6.998;2023-09-08T11:07:47;67.34;54.34;85.39;;
49568;Laerm;35474;51.032;6.998;2023-09-08T11:10:16;69.42;55.92;89.52;;
49568;Laerm;35474;51.032;6.998;2023-09-08T11:12:43;70.43;56.13;89.02;;
49568;Laerm;35474;51.032;6.998;2023-09-08T11:15:10;65.80;44.62;81.06;;
49568;Laerm;35474;51.032;6.998;2023-09-08T11:17:38;66.08;47.79;77.57;;
49568;Laerm;35474;51.032;6.998;2023-09-08T11:20:09;70.95;52.57;92.21;;
49568;Laerm;35474;51.032;6.998;2023-09-08T11:22:38;67.77;49.04;88.93;;
49568;Laerm;35474;51.032;6.998;2023-09-08T11:25:09;66.74;55.37;87.69;;
49568;Laerm;35474;51.032;6.998;2023-09-08T11:27:38;64.78;51.64;78.92;;
49568;Laerm;35474;51.032;6.998;2023-09-08T11:30:08;63.64;46.13;72.47;;
49568;Laerm;35474;51.032;6.998;2023-09-08T11:32:35;70.25;46.64;93.32;;
49568;Laerm;35474;51.032;6.998;2023-09-08T11:35:07;64.11;51.40;78.17;;
49568;Laerm;35474;51.032;6.998;2023-09-08T11:37:40;67.02;55.42;91.29;;
49568;Laerm;35474;51.032;6.998;2023-09-08T11:40:09;63.68;49.49;71.11;;
49568;Laerm;35474;51.032;6.998;2023-09-08T11:42:39;65.83;53.81;87.06;;
49568;Laerm;35474;51.032;6.998;2023-09-08T11:45:12;66.48;53.59;90.22;;
49568;Laerm;35474;51.032;6.998;2023-09-08T11:47:40;65.24;46.07;85.53;;
49568;Laerm;35474;51.032;6.998;2023-09-08T11:50:11;67.26;56.91;88.70;;
49568;Laerm;35474;51.032;6.998;2023-09-08T11:52:46;69.99;57.88;95.41;;
49568;Laerm;35474;51.032;6.998;2023-09-08T11:55:13;65.87;60.92;86.47;;
49568;Laerm;35474;51.032;6.998;2023-09-08T11:57:42;66.57;56.47;76.91;;
49568;Laerm;35474;51.032;6.998;2023-09-08T12:00:10;67.66;57.75;98.64;;
49568;Laerm;35474;51.032;6.998;2023-09-08T12:02:41;64.44;50.13;81.67;;
49568;Laerm;35474;51.032;6.998;2023-09-08T12:05:24;69.28;55.71;91.41;;
49568;Laerm;35474;51.032;6.998;2023-09-08T12:07:53;65.10;55.52;80.33;;
49568;Laerm;35474;51.032;6.998;2023-09-08T12:10:20;67.59;53.50;99.91;;
49568;Laerm;35474;51.032;6.998;2023-09-08T12:12:49;65.11;55.51;72.82;;
49568;Laerm;35474;51.032;6.998;2023-09-08T12:15:36;65.74;56.00;82.40;;
49568;Laerm;35474;51.032;6.998;2023-09-08T12:18:09;64.13;50.46;77.17;;
49568;Laerm;35474;51.032;6.998;2023-09-08T12:20:38;63.27;51.87;71.48;;
49568;Laerm;35474;51.032;6.998;2023-09-08T12:23:16;65.75;54.35;79.87;;
49568;Laerm;35474;51.032;6.998;2023-09-08T12:25:47;65.69;50.10;94.09;;
49568;Laerm;35474;51.032;6.998;2023-09-08T12:28:16;62.93;48.64;69.91;;
49568;Laerm;35474;51.032;6.998;2023-09-08T12:30:44;66.13;54.19;85.62;;
49568;Laerm;35474;51.032;6.998;2023-09-08T12:33:10;65.13;50.13;79.14;;
49568;Laerm;35474;51.032;6.998;2023-09-08T12:35:37;64.07;55.05;78.33;;
49568;Laerm;35474;51.032;6.998;2023-09-08T12:38:05;65.34;57.96;80.28;;
49568;Laerm;35474;51.032;6.998;2023-09-08T12:40:36;65.02;53.35;78.68;;
49568;Laerm;35474;51.032;6.998;2023-09-08T12:43:04;68.24;47.28;91.41;;
49568;Laerm;35474;51.032;6.998;2023-09-08T12:45:50;63.52;49.92;79.57;;
49568;Laerm;35474;51.032;6.998;2023-09-08T12:48:17;64.12;55.50;77.26;;
49568;Laerm;35474;51.032;6.998;2023-09-08T12:50:44;65.66;48.91;80.77;;
49568;Laerm;35474;51.032;6.998;2023-09-08T12:53:10;64.38;48.43;78.79;;
49568;Laerm;35474;51.032;6.998;2023-09-08T12:55:37;67.53;58.42;85.65;;
49568;Laerm;35474;51.032;6.998;2023-09-08T12:58:03;66.72;53.13;91.74;;
49568;Laerm;35474;51.032;6.998;2023-09-08T13:00:30;65.74;54.22;81.65;;
49568;Laerm;35474;51.032;6.998;2023-09-08T13:02:57;66.33;55.53;78.92;;
49568;Laerm;35474;51.032;6.998;2023-09-08T13:05:24;64.24;46.73;79.58;;
49568;Laerm;35474;51.032;6.998;2023-09-08T13:07:51;65.09;44.19;72.14;;
49568;Laerm;35474;51.032;6.998;2023-09-08T13:10:17;65.73;46.95;77.89;;
49568;Laerm;35474;51.032;6.998;2023-09-08T13:12:44;64.97;50.60;75.06;;
49568;Laerm;35474;51.032;6.998;2023-09-08T13:15:11;63.79;48.87;75.95;;
49568;Laerm;35474;51.032;6.998;2023-09-08T13:17:38;64.04;49.93;71.79;;
49568;Laerm;35474;51.032;6.998;2023-09-08T13:20:05;66.89;52.28;85.38;;
49568;Laerm;35474;51.032;6.998;2023-09-08T13:22:33;64.71;46.33;80.52;;
49568;Laerm;35474;51.032;6.998;2023-09-08T13:25:00;65.60;52.30;75.83;;
49568;Laerm;35474;51.032;6.998;2023-09-08T13:27:27;66.14;52.74;77.42;;
49568;Laerm;35474;51.032;6.998;2023-09-08T13:29:54;65.05;51.40;74.02;;
49568;Laerm;35474;51.032;6.998;2023-09-08T13:32:21;65.52;55.66;77.58;;
49568;Laerm;35474;51.032;6.998;2023-09-08T13:34:49;65.66;51.38;82.44;;
49568;Laerm;35474;51.032;6.998;2023-09-08T13:37:15;66.27;51.34;75.63;;
49568;Laerm;35474;51.032;6.998;2023-09-08T13:39:42;65.81;44.47;75.28;;
49568;Laerm;35474;51.032;6.998;2023-09-08T13:42:09;64.16;52.24;72.14;;
49568;Laerm;35474;51.032;6.998;2023-09-08T13:44:35;66.31;48.91;76.14;;
49568;Laerm;35474;51.032;6.998;2023-09-08T13:47:02;64.76;46.15;73.66;;
49568;Laerm;35474;51.032;6.998;2023-09-08T13:49:29;65.35;57.03;77.00;;
49568;Laerm;35474;51.032;6.998;2023-09-08T13:51:58;64.43;45.17;73.94;;
49568;Laerm;35474;51.032;6.998;2023-09-08T13:54:27;65.11;44.31;80.01;;
49568;Laerm;35474;51.032;6.998;2023-09-08T13:57:00;64.64;50.15;73.45;;